sensor_id;sensor_type;location;lat;lon;timestamp;P1;durP1;ratioP1;P2;durP2;ratioP2
37657;SDS011;23500;53.268;8.308;2023-08-20T00:00:44;6.05;;;5.57;;
37657;SDS011;23500;53.268;8.308;2023-08-20T00:03:11;5.88;;;5.38;;
37657;SDS011;23500;53.268;8.308;2023-08-20T00:05:39;5.82;;;5.32;;
37657;SDS011;23500;53.268;8.308;2023-08-20T00:08:05;6.20;;;5.70;;
37657;SDS011;23500;53.268;8.308;2023-08-20T00:10:31;5.75;;;5.28;;
37657;SDS011;23500;53.268;8.308;2023-08-20T00:12:57;8.13;;;5.45;;
37657;SDS011;23500;53.268;8.308;2023-08-20T00:15:23;6.15;;;4.93;;
37657;SDS011;23500;53.268;8.308;2023-08-20T00:17:52;5.88;;;5.38;;
37657;SDS011;23500;53.268;8.308;2023-08-20T00:20:19;5.88;;;5.28;;
37657;SDS011;23500;53.268;8.308;2023-08-20T00:22:45;5.57;;;5.13;;
37657;SDS011;23500;53.268;8.308;2023-08-20T00:25:12;5.93;;;5.53;;
37657;SDS011;23500;53.268;8.308;2023-08-20T00:27:39;5.70;;;5.20;;
37657;SDS011;23500;53.268;8.308;2023-08-20T00:30:05;5.65;;;5.15;;
37657;SDS011;23500;53.268;8.308;2023-08-20T00:32:31;5.70;;;5.20;;
37657;SDS011;23500;53.268;8.308;2023-08-20T00:34:57;5.65;;;5.15;;
37657;SDS011;23500;53.268;8.308;2023-08-20T00:37:23;5.53;;;5.10;;
37657;SDS011;23500;53.268;8.308;2023-08-20T00:39:50;5.85;;;5.35;;
37657;SDS011;23500;53.268;8.308;2023-08-20T00:42:15;5.55;;;5.15;;
37657;SDS011;23500;53.268;8.308;2023-08-20T00:44:41;5.80;;;5.30;;
37657;SDS011;23500;53.268;8.308;2023-08-20T00:47:09;5.65;;;5.25;;
37657;SDS011;23500;53.268;8.308;2023-08-20T00:49:35;5.47;;;5.07;;
37657;SDS011;23500;53.268;8.308;2023-08-20T00:52:02;5.18;;;4.78;;
37657;SDS011;23500;53.268;8.308;2023-08-20T00:54:29;5.65;;;5.25;;
37657;SDS011;23500;53.268;8.308;2023-08-20T00:56:57;5.38;;;4.97;;
37657;SDS011;23500;53.268;8.308;2023-08-20T00:59:25;5.90;;;5.40;;
37657;SDS011;23500;53.268;8.308;2023-08-20T01:01:51;5.55;;;5.15;;
37657;SDS011;23500;53.268;8.308;2023-08-20T01:04:17;5.55;;;5.05;;
37657;SDS011;23500;53.268;8.308;2023-08-20T01:13:02;5.13;;;4.72;;
37657;SDS011;23500;53.268;8.308;2023-08-20T01:15:29;5.07;;;4.68;;
37657;SDS011;23500;53.268;8.308;2023-08-20T01:17:55;5.07;;;4.65;;
37657;SDS011;23500;53.268;8.308;2023-08-20T01:20:21;5.43;;;5.00;;
37657;SDS011;23500;53.268;8.308;2023-08-20T01:30:46;4.88;;;4.47;;
37657;SDS011;23500;53.268;8.308;2023-08-20T01:33:12;5.45;;;4.97;;
37657;SDS011;23500;53.268;8.308;2023-08-20T01:35:40;5.35;;;4.95;;
37657;SDS011;23500;53.268;8.308;2023-08-20T01:38:05;5.40;;;4.90;;
37657;SDS011;23500;53.268;8.308;2023-08-20T01:40:32;5.25;;;4.85;;
37657;SDS011;23500;53.268;8.308;2023-08-20T01:42:59;4.82;;;4.43;;
37657;SDS011;23500;53.268;8.308;2023-08-20T01:45:24;5.30;;;4.78;;
37657;SDS011;23500;53.268;8.308;2023-08-20T01:47:51;5.30;;;4.90;;
37657;SDS011;23500;53.268;8.308;2023-08-20T01:50:17;5.03;;;4.63;;
37657;SDS011;23500;53.268;8.308;2023-08-20T01:52:43;5.00;;;4.60;;
37657;SDS011;23500;53.268;8.308;2023-08-20T01:55:09;4.63;;;4.22;;
37657;SDS011;23500;53.268;8.308;2023-08-20T01:57:36;4.80;;;4.40;;
37657;SDS011;23500;53.268;8.308;2023-08-20T02:00:02;4.63;;;4.32;;
37657;SDS011;23500;53.268;8.308;2023-08-20T02:02:30;5.00;;;4.60;;
37657;SDS011;23500;53.268;8.308;2023-08-20T02:04:56;4.65;;;4.35;;
37657;SDS011;23500;53.268;8.308;2023-08-20T02:07:22;4.93;;;4.53;;
37657;SDS011;23500;53.268;8.308;2023-08-20T02:09:48;4.53;;;4.15;;
37657;SDS011;23500;53.268;8.308;2023-08-20T02:12:14;4.53;;;4.15;;
37657;SDS011;23500;53.268;8.308;2023-08-20T02:14:40;4.80;;;4.40;;
37657;SDS011;23500;53.268;8.308;2023-08-20T02:17:06;4.70;;;4.30;;
37657;SDS011;23500;53.268;8.308;2023-08-20T02:19:32;4.00;;;3.70;;
37657;SDS011;23500;53.268;8.308;2023-08-20T02:21:58;4.13;;;3.83;;
37657;SDS011;23500;53.268;8.308;2023-08-20T02:24:24;4.57;;;4.18;;
37657;SDS011;23500;53.268;8.308;2023-08-20T02:26:50;4.28;;;3.97;;
37657;SDS011;23500;53.268;8.308;2023-08-20T02:29:16;4.30;;;4.00;;
37657;SDS011;23500;53.268;8.308;2023-08-20T02:31:41;3.88;;;3.53;;
37657;SDS011;23500;53.268;8.308;2023-08-20T02:34:07;4.00;;;3.70;;
37657;SDS011;23500;53.268;8.308;2023-08-20T02:36:33;4.30;;;4.00;;
37657;SDS011;23500;53.268;8.308;2023-08-20T02:38:59;4.40;;;4.10;;
37657;SDS011;23500;53.268;8.308;2023-08-20T02:41:25;4.00;;;3.70;;
37657;SDS011;23500;53.268;8.308;2023-08-20T02:43:50;3.78;;;3.47;;
37657;SDS011;23500;53.268;8.308;2023-08-20T02:46:16;4.55;;;4.15;;
37657;SDS011;23500;53.268;8.308;2023-08-20T02:48:42;3.90;;;3.65;;
37657;SDS011;23500;53.268;8.308;2023-08-20T02:51:08;4.43;;;4.05;;
37657;SDS011;23500;53.268;8.308;2023-08-20T02:53:33;4.68;;;4.28;;
37657;SDS011;23500;53.268;8.308;2023-08-20T02:55:59;4.03;;;3.72;;
37657;SDS011;23500;53.268;8.308;2023-08-20T02:58:25;4.07;;;3.78;;
37657;SDS011;23500;53.268;8.308;2023-08-20T03:00:51;3.95;;;3.65;;
37657;SDS011;23500;53.268;8.308;2023-08-20T03:03:18;3.92;;;3.63;;
37657;SDS011;23500;53.268;8.308;2023-08-20T03:05:43;4.20;;;3.80;;
37657;SDS011;23500;53.268;8.308;2023-08-20T03:08:09;4.13;;;3.83;;
37657;SDS011;23500;53.268;8.308;2023-08-20T03:10:35;4.05;;;3.75;;
37657;SDS011;23500;53.268;8.308;2023-08-20T03:13:01;4.00;;;3.70;;
37657;SDS011;23500;53.268;8.308;2023-08-20T03:15:30;3.97;;;3.67;;
37657;SDS011;23500;53.268;8.308;2023-08-20T03:17:56;4.13;;;3.83;;
37657;SDS011;23500;53.268;8.308;2023-08-20T03:20:22;3.83;;;3.53;;
37657;SDS011;23500;53.268;8.308;2023-08-20T03:22:48;3.90;;;3.60;;
37657;SDS011;23500;53.268;8.308;2023-08-20T03:25:13;3.70;;;3.40;;
37657;SDS011;23500;53.268;8.308;2023-08-20T03:27:39;3.92;;;3.60;;
37657;SDS011;23500;53.268;8.308;2023-08-20T03:30:06;3.88;;;3.58;;
37657;SDS011;23500;53.268;8.308;2023-08-20T03:32:32;3.50;;;3.20;;
37657;SDS011;23500;53.268;8.308;2023-08-20T03:34:58;3.70;;;3.40;;
37657;SDS011;23500;53.268;8.308;2023-08-20T03:37:24;3.42;;;3.13;;
37657;SDS011;23500;53.268;8.308;2023-08-20T03:39:51;3.63;;;3.38;;
37657;SDS011;23500;53.268;8.308;2023-08-20T03:42:17;3.25;;;3.00;;
37657;SDS011;23500;53.268;8.308;2023-08-20T03:44:42;3.35;;;3.15;;
37657;SDS011;23500;53.268;8.308;2023-08-20T03:47:08;3.72;;;3.42;;
37657;SDS011;23500;53.268;8.308;2023-08-20T03:49:34;3.30;;;3.10;;
37657;SDS011;23500;53.268;8.308;2023-08-20T03:52:00;3.42;;;3.22;;
37657;SDS011;23500;53.268;8.308;2023-08-20T03:54:29;3.22;;;3.03;;
37657;SDS011;23500;53.268;8.308;2023-08-20T03:56:55;3.33;;;3.13;;
37657;SDS011;23500;53.268;8.308;2023-08-20T03:59:21;3.00;;;2.80;;
37657;SDS011;23500;53.268;8.308;2023-08-20T04:01:47;3.05;;;2.85;;
37657;SDS011;23500;53.268;8.308;2023-08-20T04:04:13;3.30;;;3.10;;
37657;SDS011;23500;53.268;8.308;2023-08-20T04:06:38;2.95;;;2.75;;
37657;SDS011;23500;53.268;8.308;2023-08-20T04:09:04;3.17;;;2.85;;
37657;SDS011;23500;53.268;8.308;2023-08-20T04:11:31;3.22;;;3.03;;
37657;SDS011;23500;53.268;8.308;2023-08-20T04:13:57;3.58;;;3.28;;
37657;SDS011;23500;53.268;8.308;2023-08-20T04:16:23;3.17;;;2.95;;
37657;SDS011;23500;53.268;8.308;2023-08-20T04:18:50;3.17;;;2.97;;
37657;SDS011;23500;53.268;8.308;2023-08-20T04:21:15;3.13;;;2.92;;
37657;SDS011;23500;53.268;8.308;2023-08-20T04:23:41;3.45;;;3.15;;
37657;SDS011;23500;53.268;8.308;2023-08-20T04:26:07;2.92;;;2.72;;
37657;SDS011;23500;53.268;8.308;2023-08-20T04:28:33;3.28;;;2.97;;
37657;SDS011;23500;53.268;8.308;2023-08-20T04:30:58;3.30;;;3.00;;
37657;SDS011;23500;53.268;8.308;2023-08-20T04:33:25;3.00;;;2.80;;
37657;SDS011;23500;53.268;8.308;2023-08-20T04:35:51;3.10;;;2.90;;
37657;SDS011;23500;53.268;8.308;2023-08-20T04:38:17;3.42;;;3.15;;
37657;SDS011;23500;53.268;8.308;2023-08-20T04:40:47;2.95;;;2.75;;
37657;SDS011;23500;53.268;8.308;2023-08-20T04:43:13;3.22;;;3.03;;
37657;SDS011;23500;53.268;8.308;2023-08-20T04:45:40;3.00;;;2.80;;
37657;SDS011;23500;53.268;8.308;2023-08-20T04:48:07;3.15;;;2.85;;
37657;SDS011;23500;53.268;8.308;2023-08-20T04:50:33;2.90;;;2.70;;
37657;SDS011;23500;53.268;8.308;2023-08-20T04:52:59;3.13;;;2.92;;
37657;SDS011;23500;53.268;8.308;2023-08-20T04:55:25;3.22;;;3.00;;
37657;SDS011;23500;53.268;8.308;2023-08-20T04:57:52;2.88;;;2.67;;
37657;SDS011;23500;53.268;8.308;2023-08-20T05:00:18;2.85;;;2.65;;
37657;SDS011;23500;53.268;8.308;2023-08-20T05:02:44;2.83;;;2.58;;
37657;SDS011;23500;53.268;8.308;2023-08-20T05:05:10;3.15;;;2.95;;
37657;SDS011;23500;53.268;8.308;2023-08-20T05:07:36;2.88;;;2.67;;
37657;SDS011;23500;53.268;8.308;2023-08-20T05:10:02;2.83;;;2.63;;
37657;SDS011;23500;53.268;8.308;2023-08-20T05:12:28;2.90;;;2.70;;
37657;SDS011;23500;53.268;8.308;2023-08-20T05:14:54;3.25;;;3.00;;
37657;SDS011;23500;53.268;8.308;2023-08-20T05:17:20;2.75;;;2.55;;
37657;SDS011;23500;53.268;8.308;2023-08-20T05:19:46;2.72;;;2.53;;
37657;SDS011;23500;53.268;8.308;2023-08-20T05:22:12;2.90;;;2.70;;
37657;SDS011;23500;53.268;8.308;2023-08-20T05:24:38;3.00;;;2.80;;
37657;SDS011;23500;53.268;8.308;2023-08-20T05:27:16;2.92;;;2.70;;
37657;SDS011;23500;53.268;8.308;2023-08-20T05:29:42;3.13;;;2.92;;
37657;SDS011;23500;53.268;8.308;2023-08-20T05:32:08;2.92;;;2.60;;
37657;SDS011;23500;53.268;8.308;2023-08-20T05:34:34;2.80;;;2.60;;
37657;SDS011;23500;53.268;8.308;2023-08-20T05:37:01;3.22;;;2.97;;
37657;SDS011;23500;53.268;8.308;2023-08-20T05:39:27;2.70;;;2.50;;
37657;SDS011;23500;53.268;8.308;2023-08-20T05:41:53;2.75;;;2.55;;
37657;SDS011;23500;53.268;8.308;2023-08-20T05:44:19;2.67;;;2.47;;
37657;SDS011;23500;53.268;8.308;2023-08-20T05:46:45;5.55;;;3.70;;
37657;SDS011;23500;53.268;8.308;2023-08-20T05:49:13;5.50;;;4.43;;
37657;SDS011;23500;53.268;8.308;2023-08-20T05:51:41;8.55;;;3.88;;
37657;SDS011;23500;53.268;8.308;2023-08-20T05:54:08;5.00;;;3.72;;
37657;SDS011;23500;53.268;8.308;2023-08-20T05:56:33;6.30;;;3.80;;
37657;SDS011;23500;53.268;8.308;2023-08-20T05:58:59;4.88;;;3.30;;
37657;SDS011;23500;53.268;8.308;2023-08-20T06:01:25;4.82;;;3.20;;
37657;SDS011;23500;53.268;8.308;2023-08-20T06:03:50;5.90;;;3.40;;
37657;SDS011;23500;53.268;8.308;2023-08-20T06:06:16;4.53;;;2.95;;
37657;SDS011;23500;53.268;8.308;2023-08-20T06:08:42;5.63;;;2.97;;
37657;SDS011;23500;53.268;8.308;2023-08-20T06:11:08;3.47;;;2.42;;
37657;SDS011;23500;53.268;8.308;2023-08-20T06:13:33;3.88;;;2.55;;
37657;SDS011;23500;53.268;8.308;2023-08-20T06:15:59;4.45;;;2.88;;
37657;SDS011;23500;53.268;8.308;2023-08-20T06:18:25;2.45;;;2.25;;
37657;SDS011;23500;53.268;8.308;2023-08-20T06:20:50;3.92;;;2.53;;
37657;SDS011;23500;53.268;8.308;2023-08-20T06:23:16;2.88;;;2.42;;
37657;SDS011;23500;53.268;8.308;2023-08-20T06:25:42;2.88;;;2.25;;
37657;SDS011;23500;53.268;8.308;2023-08-20T06:28:08;4.88;;;2.58;;
37657;SDS011;23500;53.268;8.308;2023-08-20T06:30:35;3.65;;;2.80;;
37657;SDS011;23500;53.268;8.308;2023-08-20T06:33:00;2.70;;;2.47;;
37657;SDS011;23500;53.268;8.308;2023-08-20T06:35:26;3.03;;;2.70;;
37657;SDS011;23500;53.268;8.308;2023-08-20T06:37:52;3.10;;;2.80;;
37657;SDS011;23500;53.268;8.308;2023-08-20T06:40:18;2.22;;;2.03;;
37657;SDS011;23500;53.268;8.308;2023-08-20T06:42:44;2.70;;;2.50;;
37657;SDS011;23500;53.268;8.308;2023-08-20T06:45:09;4.00;;;2.50;;
37657;SDS011;23500;53.268;8.308;2023-08-20T06:47:35;3.42;;;2.58;;
37657;SDS011;23500;53.268;8.308;2023-08-20T06:50:02;3.17;;;2.88;;
37657;SDS011;23500;53.268;8.308;2023-08-20T06:52:28;4.10;;;2.63;;
37657;SDS011;23500;53.268;8.308;2023-08-20T06:54:53;3.60;;;2.63;;
37657;SDS011;23500;53.268;8.308;2023-08-20T06:57:19;3.38;;;2.55;;
37657;SDS011;23500;53.268;8.308;2023-08-20T06:59:45;4.65;;;2.88;;
37657;SDS011;23500;53.268;8.308;2023-08-20T07:02:11;2.80;;;2.47;;
37657;SDS011;23500;53.268;8.308;2023-08-20T07:04:37;2.78;;;2.38;;
37657;SDS011;23500;53.268;8.308;2023-08-20T07:07:03;2.78;;;2.38;;
37657;SDS011;23500;53.268;8.308;2023-08-20T07:09:31;4.65;;;2.50;;
37657;SDS011;23500;53.268;8.308;2023-08-20T07:11:57;4.30;;;2.28;;
37657;SDS011;23500;53.268;8.308;2023-08-20T07:14:23;5.55;;;2.35;;
37657;SDS011;23500;53.268;8.308;2023-08-20T07:16:48;3.67;;;2.90;;
37657;SDS011;23500;53.268;8.308;2023-08-20T07:19:14;4.15;;;2.65;;
37657;SDS011;23500;53.268;8.308;2023-08-20T07:21:40;4.32;;;2.60;;
37657;SDS011;23500;53.268;8.308;2023-08-20T07:24:06;3.85;;;2.55;;
37657;SDS011;23500;53.268;8.308;2023-08-20T07:26:32;4.78;;;2.42;;
37657;SDS011;23500;53.268;8.308;2023-08-20T07:28:57;4.20;;;2.33;;
37657;SDS011;23500;53.268;8.308;2023-08-20T07:31:24;4.43;;;2.60;;
37657;SDS011;23500;53.268;8.308;2023-08-20T07:33:51;2.83;;;2.53;;
37657;SDS011;23500;53.268;8.308;2023-08-20T07:36:19;3.13;;;2.45;;
37657;SDS011;23500;53.268;8.308;2023-08-20T07:38:46;5.15;;;2.67;;
37657;SDS011;23500;53.268;8.308;2023-08-20T07:41:12;6.90;;;3.42;;
37657;SDS011;23500;53.268;8.308;2023-08-20T07:43:39;9.75;;;3.53;;
37657;SDS011;23500;53.268;8.308;2023-08-20T07:46:06;10.02;;;3.47;;
37657;SDS011;23500;53.268;8.308;2023-08-20T07:48:32;7.28;;;2.92;;
37657;SDS011;23500;53.268;8.308;2023-08-20T07:50:58;9.85;;;3.00;;
37657;SDS011;23500;53.268;8.308;2023-08-20T07:53:24;7.63;;;2.47;;
37657;SDS011;23500;53.268;8.308;2023-08-20T07:55:50;9.90;;;2.85;;
37657;SDS011;23500;53.268;8.308;2023-08-20T07:58:16;7.38;;;2.20;;
37657;SDS011;23500;53.268;8.308;2023-08-20T08:00:42;6.03;;;2.00;;
37657;SDS011;23500;53.268;8.308;2023-08-20T08:03:08;5.95;;;2.47;;
37657;SDS011;23500;53.268;8.308;2023-08-20T08:05:35;6.22;;;2.33;;
37657;SDS011;23500;53.268;8.308;2023-08-20T08:08:01;6.38;;;2.40;;
37657;SDS011;23500;53.268;8.308;2023-08-20T08:10:28;4.55;;;2.00;;
37657;SDS011;23500;53.268;8.308;2023-08-20T08:12:54;3.70;;;1.88;;
37657;SDS011;23500;53.268;8.308;2023-08-20T08:15:19;2.92;;;2.10;;
37657;SDS011;23500;53.268;8.308;2023-08-20T08:17:45;4.47;;;1.73;;
37657;SDS011;23500;53.268;8.308;2023-08-20T08:20:11;3.42;;;1.90;;
37657;SDS011;23500;53.268;8.308;2023-08-20T08:22:37;5.60;;;2.15;;
37657;SDS011;23500;53.268;8.308;2023-08-20T08:25:04;4.72;;;1.95;;
37657;SDS011;23500;53.268;8.308;2023-08-20T08:27:30;5.00;;;2.08;;
37657;SDS011;23500;53.268;8.308;2023-08-20T08:29:56;6.65;;;2.50;;
37657;SDS011;23500;53.268;8.308;2023-08-20T08:32:22;6.03;;;2.10;;
37657;SDS011;23500;53.268;8.308;2023-08-20T08:34:48;6.40;;;2.47;;
37657;SDS011;23500;53.268;8.308;2023-08-20T08:37:13;5.72;;;2.63;;
37657;SDS011;23500;53.268;8.308;2023-08-20T08:39:40;4.65;;;2.10;;
37657;SDS011;23500;53.268;8.308;2023-08-20T08:42:06;4.95;;;2.30;;
37657;SDS011;23500;53.268;8.308;2023-08-20T08:44:36;6.13;;;2.58;;
37657;SDS011;23500;53.268;8.308;2023-08-20T08:47:02;3.03;;;2.00;;
37657;SDS011;23500;53.268;8.308;2023-08-20T08:49:33;7.40;;;2.60;;
37657;SDS011;23500;53.268;8.308;2023-08-20T08:51:59;5.43;;;2.20;;
37657;SDS011;23500;53.268;8.308;2023-08-20T08:54:28;3.72;;;2.10;;
37657;SDS011;23500;53.268;8.308;2023-08-20T08:56:54;6.35;;;2.42;;
37657;SDS011;23500;53.268;8.308;2023-08-20T08:59:19;6.32;;;2.67;;
37657;SDS011;23500;53.268;8.308;2023-08-20T09:01:45;5.50;;;2.85;;
37657;SDS011;23500;53.268;8.308;2023-08-20T09:04:12;6.55;;;3.15;;
37657;SDS011;23500;53.268;8.308;2023-08-20T09:06:48;6.43;;;2.67;;
37657;SDS011;23500;53.268;8.308;2023-08-20T09:09:16;7.45;;;2.90;;
37657;SDS011;23500;53.268;8.308;2023-08-20T09:11:43;8.07;;;2.63;;
37657;SDS011;23500;53.268;8.308;2023-08-20T09:14:20;5.18;;;2.60;;
37657;SDS011;23500;53.268;8.308;2023-08-20T09:16:53;5.50;;;2.55;;
37657;SDS011;23500;53.268;8.308;2023-08-20T09:19:20;6.57;;;2.63;;
37657;SDS011;23500;53.268;8.308;2023-08-20T09:21:46;7.45;;;3.00;;
37657;SDS011;23500;53.268;8.308;2023-08-20T09:24:13;8.00;;;2.80;;
37657;SDS011;23500;53.268;8.308;2023-08-20T09:26:39;5.57;;;2.72;;
37657;SDS011;23500;53.268;8.308;2023-08-20T09:29:09;6.03;;;3.00;;
37657;SDS011;23500;53.268;8.308;2023-08-20T09:31:39;5.35;;;2.70;;
37657;SDS011;23500;53.268;8.308;2023-08-20T09:34:05;5.53;;;2.70;;
37657;SDS011;23500;53.268;8.308;2023-08-20T09:36:32;10.30;;;2.90;;
37657;SDS011;23500;53.268;8.308;2023-08-20T09:39:00;6.70;;;2.33;;
37657;SDS011;23500;53.268;8.308;2023-08-20T09:41:27;5.00;;;2.58;;
37657;SDS011;23500;53.268;8.308;2023-08-20T09:43:57;7.88;;;2.38;;
37657;SDS011;23500;53.268;8.308;2023-08-20T09:46:27;6.60;;;3.00;;
37657;SDS011;23500;53.268;8.308;2023-08-20T09:48:56;6.43;;;2.90;;
37657;SDS011;23500;53.268;8.308;2023-08-20T09:51:26;6.82;;;2.50;;
37657;SDS011;23500;53.268;8.308;2023-08-20T09:56:39;9.23;;;3.08;;
37657;SDS011;23500;53.268;8.308;2023-08-20T09:59:05;6.03;;;2.45;;
37657;SDS011;23500;53.268;8.308;2023-08-20T10:01:32;6.78;;;2.53;;
37657;SDS011;23500;53.268;8.308;2023-08-20T10:03:59;4.93;;;2.35;;
37657;SDS011;23500;53.268;8.308;2023-08-20T10:06:25;7.95;;;2.20;;
37657;SDS011;23500;53.268;8.308;2023-08-20T10:08:52;7.43;;;2.22;;
37657;SDS011;23500;53.268;8.308;2023-08-20T10:11:19;6.07;;;2.30;;
37657;SDS011;23500;53.268;8.308;2023-08-20T10:13:45;7.93;;;2.35;;
37657;SDS011;23500;53.268;8.308;2023-08-20T10:16:11;6.72;;;2.53;;
37657;SDS011;23500;53.268;8.308;2023-08-20T10:18:38;6.38;;;2.40;;
37657;SDS011;23500;53.268;8.308;2023-08-20T10:21:04;8.00;;;2.78;;
37657;SDS011;23500;53.268;8.308;2023-08-20T10:23:33;7.88;;;2.70;;
37657;SDS011;23500;53.268;8.308;2023-08-20T10:26:09;6.03;;;2.38;;
37657;SDS011;23500;53.268;8.308;2023-08-20T10:28:36;5.75;;;2.42;;
37657;SDS011;23500;53.268;8.308;2023-08-20T10:31:09;5.47;;;2.40;;
37657;SDS011;23500;53.268;8.308;2023-08-20T10:33:57;5.93;;;2.20;;
37657;SDS011;23500;53.268;8.308;2023-08-20T10:36:23;7.80;;;2.42;;
37657;SDS011;23500;53.268;8.308;2023-08-20T10:38:56;7.28;;;2.60;;
37657;SDS011;23500;53.268;8.308;2023-08-20T10:41:29;8.45;;;2.70;;
37657;SDS011;23500;53.268;8.308;2023-08-20T10:43:58;7.95;;;2.63;;
37657;SDS011;23500;53.268;8.308;2023-08-20T10:46:25;8.20;;;3.08;;
37657;SDS011;23500;53.268;8.308;2023-08-20T10:49:01;7.30;;;2.70;;
37657;SDS011;23500;53.268;8.308;2023-08-20T10:54:08;5.18;;;2.65;;
37657;SDS011;23500;53.268;8.308;2023-08-20T10:56:39;5.43;;;2.20;;
37657;SDS011;23500;53.268;8.308;2023-08-20T10:59:43;6.75;;;2.63;;
37657;SDS011;23500;53.268;8.308;2023-08-20T11:02:04;6.95;;;2.67;;
37657;SDS011;23500;53.268;8.308;2023-08-20T11:04:40;7.20;;;2.45;;
37657;SDS011;23500;53.268;8.308;2023-08-20T11:07:06;5.38;;;2.80;;
37657;SDS011;23500;53.268;8.308;2023-08-20T11:09:33;6.53;;;2.78;;
37657;SDS011;23500;53.268;8.308;2023-08-20T11:12:00;6.47;;;2.53;;
37657;SDS011;23500;53.268;8.308;2023-08-20T11:14:26;6.90;;;2.75;;
37657;SDS011;23500;53.268;8.308;2023-08-20T11:16:52;7.55;;;2.60;;
37657;SDS011;23500;53.268;8.308;2023-08-20T11:19:21;5.63;;;2.72;;
37657;SDS011;23500;53.268;8.308;2023-08-20T11:21:48;7.40;;;2.90;;
37657;SDS011;23500;53.268;8.308;2023-08-20T11:24:15;8.57;;;2.72;;
37657;SDS011;23500;53.268;8.308;2023-08-20T11:26:43;5.88;;;2.63;;
37657;SDS011;23500;53.268;8.308;2023-08-20T11:29:09;9.77;;;2.67;;
37657;SDS011;23500;53.268;8.308;2023-08-20T11:31:37;8.65;;;2.47;;
37657;SDS011;23500;53.268;8.308;2023-08-20T11:34:04;6.18;;;2.53;;
37657;SDS011;23500;53.268;8.308;2023-08-20T11:36:31;4.03;;;2.13;;
37657;SDS011;23500;53.268;8.308;2023-08-20T11:38:57;5.15;;;2.60;;
37657;SDS011;23500;53.268;8.308;2023-08-20T11:41:23;5.03;;;2.47;;
37657;SDS011;23500;53.268;8.308;2023-08-20T11:43:50;5.78;;;2.63;;
37657;SDS011;23500;53.268;8.308;2023-08-20T11:46:21;6.43;;;2.47;;
37657;SDS011;23500;53.268;8.308;2023-08-20T11:51:51;5.03;;;2.55;;
37657;SDS011;23500;53.268;8.308;2023-08-20T11:54:18;5.25;;;2.60;;
37657;SDS011;23500;53.268;8.308;2023-08-20T11:56:44;6.38;;;2.38;;
37657;SDS011;23500;53.268;8.308;2023-08-20T11:59:12;7.93;;;2.47;;
37657;SDS011;23500;53.268;8.308;2023-08-20T12:01:38;6.65;;;2.65;;
37657;SDS011;23500;53.268;8.308;2023-08-20T12:04:05;4.25;;;2.28;;
37657;SDS011;23500;53.268;8.308;2023-08-20T12:06:32;5.03;;;2.38;;
37657;SDS011;23500;53.268;8.308;2023-08-20T12:09:18;7.10;;;2.70;;
37657;SDS011;23500;53.268;8.308;2023-08-20T12:11:49;6.93;;;2.50;;
37657;SDS011;23500;53.268;8.308;2023-08-20T12:14:17;8.70;;;2.88;;
37657;SDS011;23500;53.268;8.308;2023-08-20T12:16:44;5.30;;;2.63;;
37657;SDS011;23500;53.268;8.308;2023-08-20T12:19:10;5.10;;;2.45;;
37657;SDS011;23500;53.268;8.308;2023-08-20T12:21:36;5.05;;;2.20;;
37657;SDS011;23500;53.268;8.308;2023-08-20T12:24:02;7.32;;;2.25;;
37657;SDS011;23500;53.268;8.308;2023-08-20T12:26:29;4.32;;;2.10;;
37657;SDS011;23500;53.268;8.308;2023-08-20T12:28:55;4.90;;;1.80;;
37657;SDS011;23500;53.268;8.308;2023-08-20T12:31:20;6.53;;;2.67;;
37657;SDS011;23500;53.268;8.308;2023-08-20T12:33:46;5.00;;;2.65;;
37657;SDS011;23500;53.268;8.308;2023-08-20T12:36:12;4.80;;;2.15;;
37657;SDS011;23500;53.268;8.308;2023-08-20T12:38:38;2.63;;;1.90;;
37657;SDS011;23500;53.268;8.308;2023-08-20T12:41:03;3.80;;;2.13;;
37657;SDS011;23500;53.268;8.308;2023-08-20T12:43:30;5.93;;;1.70;;
37657;SDS011;23500;53.268;8.308;2023-08-20T12:45:56;3.58;;;1.85;;
37657;SDS011;23500;53.268;8.308;2023-08-20T12:48:22;3.15;;;1.67;;
37657;SDS011;23500;53.268;8.308;2023-08-20T12:50:47;3.63;;;1.65;;
37657;SDS011;23500;53.268;8.308;2023-08-20T12:53:13;4.60;;;1.80;;
37657;SDS011;23500;53.268;8.308;2023-08-20T12:55:39;3.65;;;1.55;;
37657;SDS011;23500;53.268;8.308;2023-08-20T12:58:05;2.10;;;1.30;;
37657;SDS011;23500;53.268;8.308;2023-08-20T13:00:31;3.25;;;1.38;;
37657;SDS011;23500;53.268;8.308;2023-08-20T13:02:56;4.75;;;1.70;;
37657;SDS011;23500;53.268;8.308;2023-08-20T13:05:23;4.00;;;1.35;;
37657;SDS011;23500;53.268;8.308;2023-08-20T13:07:49;3.90;;;1.30;;
37657;SDS011;23500;53.268;8.308;2023-08-20T13:10:15;3.75;;;1.48;;
37657;SDS011;23500;53.268;8.308;2023-08-20T13:12:42;5.38;;;1.63;;
37657;SDS011;23500;53.268;8.308;2023-08-20T13:15:14;2.58;;;1.30;;
37657;SDS011;23500;53.268;8.308;2023-08-20T13:17:42;4.07;;;1.42;;
37657;SDS011;23500;53.268;8.308;2023-08-20T13:20:08;2.78;;;1.30;;
37657;SDS011;23500;53.268;8.308;2023-08-20T13:22:34;3.88;;;1.40;;
37657;SDS011;23500;53.268;8.308;2023-08-20T13:25:00;2.88;;;1.83;;
37657;SDS011;23500;53.268;8.308;2023-08-20T13:27:26;4.82;;;1.60;;
37657;SDS011;23500;53.268;8.308;2023-08-20T13:29:52;3.08;;;1.50;;
37657;SDS011;23500;53.268;8.308;2023-08-20T13:32:18;2.80;;;1.20;;
37657;SDS011;23500;53.268;8.308;2023-08-20T13:34:44;3.30;;;1.40;;
37657;SDS011;23500;53.268;8.308;2023-08-20T13:37:09;3.72;;;1.40;;
37657;SDS011;23500;53.268;8.308;2023-08-20T13:39:35;2.78;;;1.35;;
37657;SDS011;23500;53.268;8.308;2023-08-20T13:42:01;2.33;;;1.30;;
37657;SDS011;23500;53.268;8.308;2023-08-20T13:44:27;3.20;;;1.50;;
37657;SDS011;23500;53.268;8.308;2023-08-20T13:46:53;2.33;;;1.30;;
37657;SDS011;23500;53.268;8.308;2023-08-20T13:49:19;4.25;;;1.80;;
37657;SDS011;23500;53.268;8.308;2023-08-20T13:51:44;1.92;;;1.30;;
37657;SDS011;23500;53.268;8.308;2023-08-20T13:54:10;2.35;;;1.40;;
37657;SDS011;23500;53.268;8.308;2023-08-20T13:56:36;3.53;;;1.30;;
37657;SDS011;23500;53.268;8.308;2023-08-20T13:59:02;2.53;;;1.60;;
37657;SDS011;23500;53.268;8.308;2023-08-20T14:01:27;2.38;;;1.33;;
37657;SDS011;23500;53.268;8.308;2023-08-20T14:03:53;3.42;;;1.48;;
37657;SDS011;23500;53.268;8.308;2023-08-20T14:06:19;2.00;;;1.48;;
37657;SDS011;23500;53.268;8.308;2023-08-20T14:08:45;1.52;;;1.23;;
37657;SDS011;23500;53.268;8.308;2023-08-20T14:11:11;2.50;;;1.23;;
37657;SDS011;23500;53.268;8.308;2023-08-20T14:13:36;2.38;;;1.40;;
37657;SDS011;23500;53.268;8.308;2023-08-20T14:16:02;3.33;;;1.60;;
37657;SDS011;23500;53.268;8.308;2023-08-20T14:18:28;2.40;;;1.23;;
37657;SDS011;23500;53.268;8.308;2023-08-20T14:20:54;4.10;;;1.60;;
37657;SDS011;23500;53.268;8.308;2023-08-20T14:23:20;2.05;;;1.40;;
37657;SDS011;23500;53.268;8.308;2023-08-20T14:25:46;2.30;;;1.45;;
37657;SDS011;23500;53.268;8.308;2023-08-20T14:28:11;2.65;;;1.50;;
37657;SDS011;23500;53.268;8.308;2023-08-20T14:30:38;2.58;;;1.70;;
37657;SDS011;23500;53.268;8.308;2023-08-20T14:33:04;2.20;;;1.63;;
37657;SDS011;23500;53.268;8.308;2023-08-20T14:35:31;1.83;;;1.40;;
37657;SDS011;23500;53.268;8.308;2023-08-20T14:37:57;1.77;;;1.45;;
37657;SDS011;23500;53.268;8.308;2023-08-20T14:40:23;2.53;;;1.67;;
37657;SDS011;23500;53.268;8.308;2023-08-20T14:42:49;2.08;;;1.42;;
37657;SDS011;23500;53.268;8.308;2023-08-20T14:45:15;1.58;;;1.48;;
37657;SDS011;23500;53.268;8.308;2023-08-20T14:47:41;2.70;;;1.60;;
37657;SDS011;23500;53.268;8.308;2023-08-20T14:50:07;1.48;;;1.30;;
37657;SDS011;23500;53.268;8.308;2023-08-20T14:52:34;1.48;;;1.38;;
37657;SDS011;23500;53.268;8.308;2023-08-20T14:55:00;5.05;;;1.70;;
37657;SDS011;23500;53.268;8.308;2023-08-20T14:57:26;0.93;;;0.90;;
37657;SDS011;23500;53.268;8.308;2023-08-20T14:59:52;2.10;;;1.20;;
37657;SDS011;23500;53.268;8.308;2023-08-20T15:02:17;2.08;;;1.20;;
37657;SDS011;23500;53.268;8.308;2023-08-20T15:04:43;2.83;;;1.42;;
37657;SDS011;23500;53.268;8.308;2023-08-20T15:07:09;1.98;;;1.20;;